馬公航空站 - ATIS

METAR RCQC 201900Z 18001KT 7000 FEW012 23/22 Q1012 RMK A2990=

站台狀態:Online
最後更新:2019-03-21 03:00:02